Time;durP1;ratioP1;P1;durP2;ratioP2;P2;SDS_P1;SDS_P2;PMS_P1;PMS_P2;Temp;Humidity;BMP_temperature;BMP_pressure;BME280_temperature;BME280_humidity;BME280_pressure;Samples;Min_cycle;Max_cycle;Signal;HPM_P1;HPM_P2
2022/01/21 00:01:24;;;;;;;15.73;3.80;;;;;;;3.21;71.95;101303.16;4963247;28;20445;-82
2022/01/21 00:03:51;;;;;;;10.00;3.85;;;;;;;3.20;71.66;101290.94;4965290;28;20082;-83
2022/01/21 00:06:19;;;;;;;17.17;4.38;;;;;;;3.20;71.90;101304.06;4989100;28;20062;-82
2022/01/21 00:08:47;;;;;;;16.63;5.00;;;;;;;3.19;71.76;101299.72;4982504;28;20061;-83
2022/01/21 00:11:15;;;;;;;19.55;5.38;;;;;;;3.18;71.68;101305.00;4958441;28;20058;-82
2022/01/21 00:13:42;;;;;;;20.48;4.55;;;;;;;3.17;71.94;101301.53;4980371;28;20101;-82
2022/01/21 00:16:11;;;;;;;17.85;6.05;;;;;;;3.18;71.74;101297.13;5008420;28;20043;-83
2022/01/21 00:18:53;;;;;;;18.38;4.10;;;;;;;3.19;71.88;101304.13;4981568;28;20046;-83
2022/01/21 00:32:23;;;;;;;22.05;4.32;;;;;;;3.13;71.98;101306.94;4978307;28;20129;-82
2022/01/21 00:34:51;;;;;;;19.98;4.85;;;;;;;3.14;71.83;101313.91;4967763;28;20056;-82
2022/01/21 00:37:19;;;;;;;19.98;5.05;;;;;;;3.12;72.00;101302.63;4985128;28;20043;-83
2022/01/21 00:39:52;;;;;;;23.70;4.60;;;;;;;3.11;72.24;101303.53;4984287;28;20710;-83
2022/01/21 00:44:50;;;;;;;15.02;4.93;;;;;;;3.09;72.22;101313.22;4987980;28;20104;-83
2022/01/21 00:47:17;;;;;;;12.88;4.30;;;;;;;3.11;72.22;101320.13;4986950;28;20434;-83
2022/01/21 00:49:44;;;;;;;22.20;5.20;;;;;;;3.11;72.28;101316.66;4944630;28;20042;-83
2022/01/21 00:52:11;;;;;;;23.40;5.18;;;;;;;3.11;72.12;101311.41;5013452;28;20073;-82
2022/01/21 00:54:37;;;;;;;26.35;5.75;;;;;;;3.10;72.11;101312.28;4965655;28;20050;-83
2022/01/21 00:57:04;;;;;;;16.75;4.43;;;;;;;3.08;72.19;101320.25;4990641;28;20054;-83
2022/01/21 00:59:31;;;;;;;12.68;4.70;;;;;;;3.07;72.32;101323.75;4978882;28;20046;-82
2022/01/21 01:01:58;;;;;;;15.93;3.58;;;;;;;3.07;72.34;101328.16;5003191;28;20050;-83
2022/01/21 01:04:27;;;;;;;20.23;4.90;;;;;;;3.07;72.34;101329.00;5003840;28;20085;-83
2022/01/21 01:06:53;;;;;;;14.35;5.00;;;;;;;3.07;72.21;101334.25;5002961;28;20448;-83
2022/01/21 01:09:20;;;;;;;18.85;5.53;;;;;;;3.07;72.40;101333.41;5007731;28;20050;-82
2022/01/21 01:12:09;;;;;;;22.35;6.15;;;;;;;3.06;72.35;101322.06;4971356;28;20057;-83
2022/01/21 01:20:09;;;;;;;14.90;4.63;;;;;;;3.01;72.32;101347.59;4963213;28;20161;-83
2022/01/21 01:27:51;;;;;;;13.32;4.38;;;;;;;3.01;72.14;101344.97;4964602;28;20068;-82
2022/01/21 01:30:22;;;;;;;14.13;4.07;;;;;;;2.99;72.39;101344.16;4973192;28;20074;-83
2022/01/21 01:32:54;;;;;;;20.92;4.55;;;;;;;2.99;72.49;101344.16;4967036;28;20043;-83
2022/01/21 01:35:22;;;;;;;12.50;4.75;;;;;;;2.98;72.41;101345.94;4973268;28;20049;-82
2022/01/21 01:40:42;;;;;;;21.55;5.38;;;;;;;2.97;72.32;101343.34;4971487;28;20066;-82
2022/01/21 01:49:27;;;;;;;10.95;3.90;;;;;;;2.94;72.58;101352.16;4990436;28;20042;-82
2022/01/21 01:51:39;;;;;;;11.88;4.00;;;;;;;2.89;72.51;101350.59;4955684;28;20042;-82
2022/01/21 01:54:09;;;;;;;24.42;4.65;;;;;;;2.89;72.15;101347.97;4969060;28;20142;-83
2022/01/21 01:56:39;;;;;;;13.35;4.85;;;;;;;2.88;72.32;101338.41;5007263;28;20093;-83
2022/01/21 01:59:06;;;;;;;15.90;4.20;;;;;;;2.87;72.56;101337.53;5000962;28;20550;-82
2022/01/21 02:01:34;;;;;;;11.95;4.10;;;;;;;2.88;72.32;101333.16;4962993;28;20041;-83
2022/01/21 02:04:01;;;;;;;23.55;4.72;;;;;;;2.87;72.24;101337.53;4978152;28;20047;-83
2022/01/21 02:06:28;;;;;;;11.45;3.78;;;;;;;2.85;72.21;101331.50;4970793;28;20092;-83
2022/01/21 02:08:55;;;;;;;17.33;4.60;;;;;;;2.83;72.31;101334.16;4966461;28;20058;-83
2022/01/21 02:11:21;;;;;;;18.42;4.65;;;;;;;2.82;72.24;101336.81;4969655;28;20046;-83
2022/01/21 02:13:55;;;;;;;20.25;5.00;;;;;;;2.79;72.09;101335.16;4983692;28;20042;-82
2022/01/21 02:21:41;;;;;;;20.00;4.95;;;;;;;2.76;72.31;101342.28;4915551;28;20102;-83
2022/01/21 02:24:22;;;;;;;23.88;5.10;;;;;;;2.71;72.16;101341.56;4918079;28;20048;-83
2022/01/21 02:26:52;;;;;;;15.00;4.68;;;;;;;2.75;72.23;101340.56;4855915;29;20045;-82
2022/01/21 02:29:29;;;;;;;17.35;5.00;;;;;;;2.73;71.94;101345.84;4865307;29;20057;-82
2022/01/21 02:31:59;;;;;;;17.08;4.90;;;;;;;2.71;72.29;101339.78;4852811;29;20104;-82
2022/01/21 02:34:26;;;;;;;16.55;4.20;;;;;;;2.73;72.25;101342.38;4844591;29;20045;-83
2022/01/21 02:36:54;;;;;;;20.05;4.47;;;;;;;2.71;72.17;101342.41;4852526;29;20105;-82
2022/01/21 02:39:21;;;;;;;21.52;4.35;;;;;;;2.71;72.14;101344.19;4855812;29;21084;-83
2022/01/21 02:41:48;;;;;;;23.77;4.72;;;;;;;2.69;71.97;101348.63;4838996;29;20460;-82
2022/01/21 02:44:17;;;;;;;23.90;4.57;;;;;;;2.69;72.08;101349.47;4852362;29;20045;-82
2022/01/21 02:46:48;;;;;;;15.13;4.63;;;;;;;2.69;72.11;101352.09;4833385;29;20121;-82
2022/01/21 02:49:16;;;;;;;12.48;3.80;;;;;;;2.68;72.13;101346.91;4876367;29;20050;-83
2022/01/21 02:51:43;;;;;;;21.50;5.05;;;;;;;2.66;72.04;101348.72;4861828;28;20109;-82
2022/01/21 02:54:10;;;;;;;12.52;3.88;;;;;;;2.67;72.21;101353.03;4939964;28;20054;-82
2022/01/21 02:56:38;;;;;;;17.05;4.10;;;;;;;2.64;72.23;101343.50;4932934;28;20535;-82
2022/01/21 02:59:07;;;;;;;15.55;5.45;;;;;;;2.64;72.14;101355.75;4983443;28;20034;-82
2022/01/21 03:01:36;;;;;;;24.35;5.50;;;;;;;2.63;71.88;101356.69;5006872;28;20057;-81
2022/01/21 03:04:05;;;;;;;15.57;4.75;;;;;;;2.62;72.01;101368.94;4984561;28;20120;-81
2022/01/21 03:06:33;;;;;;;9.65;3.60;;;;;;;2.61;71.95;101370.69;4969802;28;20395;-81
2022/01/21 03:09:04;;;;;;;18.00;5.03;;;;;;;2.60;72.23;101368.97;4955242;28;20740;-81
2022/01/21 03:11:30;;;;;;;16.08;4.90;;;;;;;2.59;72.17;101372.50;4984126;28;20131;-81
2022/01/21 03:13:58;;;;;;;15.60;4.30;;;;;;;2.60;71.97;101373.38;4973572;28;20051;-81
2022/01/21 03:16:25;;;;;;;13.35;4.95;;;;;;;2.59;72.08;101366.41;4981814;28;20049;-81
2022/01/21 03:18:52;;;;;;;18.58;4.47;;;;;;;2.58;72.19;101364.69;4973100;28;20049;-81
2022/01/21 03:21:19;;;;;;;17.95;5.40;;;;;;;2.59;72.20;101372.50;4980901;28;20047;-82
2022/01/21 03:23:47;;;;;;;19.45;5.25;;;;;;;2.58;71.97;101376.03;4950496;28;20599;-82
2022/01/21 03:26:17;;;;;;;26.60;5.47;;;;;;;2.58;72.30;101375.19;4963657;28;20146;-81
2022/01/21 03:28:49;;;;;;;17.60;5.45;;;;;;;2.57;72.20;101376.94;4961118;28;20038;-81
2022/01/21 03:31:16;;;;;;;27.58;4.55;;;;;;;2.57;72.29;101379.56;4949155;28;20057;-81
2022/01/21 03:33:44;;;;;;;12.35;4.75;;;;;;;2.56;72.27;101372.59;4973514;28;20046;-82
2022/01/21 03:36:11;;;;;;;15.05;4.60;;;;;;;2.57;72.40;101379.56;4975162;28;20051;-82
2022/01/21 03:38:38;;;;;;;22.40;5.43;;;;;;;2.56;72.14;101375.22;4957472;28;20057;-81
2022/01/21 03:41:06;;;;;;;13.75;3.25;;;;;;;2.55;72.11;101376.13;4969391;28;20043;-81
2022/01/21 03:43:34;;;;;;;21.70;5.50;;;;;;;2.56;72.01;101375.22;4968376;28;20050;-82
2022/01/21 03:46:01;;;;;;;13.65;4.45;;;;;;;2.56;72.23;101374.34;4957427;28;20050;-82
2022/01/21 03:48:29;;;;;;;16.70;4.13;;;;;;;2.56;72.12;101371.75;4986014;28;20467;-81
2022/01/21 03:50:58;;;;;;;22.58;4.32;;;;;;;2.56;72.02;101376.97;4982535;28;20596;-81
2022/01/21 03:53:24;;;;;;;16.73;4.45;;;;;;;2.55;72.12;101380.53;4977613;28;20042;-81
2022/01/21 03:55:51;;;;;;;15.10;4.60;;;;;;;2.54;72.13;101387.50;4971411;28;20414;-81
2022/01/21 03:58:18;;;;;;;15.82;4.20;;;;;;;2.53;72.28;101393.66;4972728;28;20050;-81
2022/01/21 04:00:52;;;;;;;19.75;5.30;;;;;;;2.51;72.39;101392.84;4969116;28;20046;-81
2022/01/21 04:03:21;;;;;;;17.40;5.38;;;;;;;2.49;72.28;101391.19;4988015;28;20162;-81
2022/01/21 04:05:49;;;;;;;15.30;4.25;;;;;;;2.50;72.31;101400.78;4967982;28;20108;-81
2022/01/21 04:08:17;;;;;;;22.13;6.50;;;;;;;2.51;72.01;101399.88;4989548;28;20053;-81
2022/01/21 04:10:52;;;;;;;18.88;5.30;;;;;;;2.49;72.27;101397.28;4956658;28;20047;-81
2022/01/21 04:13:26;;;;;;;23.52;6.47;;;;;;;2.46;72.01;101396.53;4972460;28;20496;-81
2022/01/21 04:15:58;;;;;;;57.53;14.05;;;;;;;2.43;71.95;101401.88;4997616;28;20053;-81
2022/01/21 04:18:30;;;;;;;37.13;11.13;;;;;;;2.44;71.93;101409.66;4978470;28;20042;-82
2022/01/21 04:21:00;;;;;;;25.95;7.93;;;;;;;2.42;72.22;101403.63;4975588;28;20075;-82
2022/01/21 04:23:30;;;;;;;33.70;11.48;;;;;;;2.42;72.02;101410.63;4977956;28;20074;-82
2022/01/21 04:25:57;;;;;;;42.53;16.67;;;;;;;2.41;72.14;101409.75;4987926;28;20047;-81
2022/01/21 04:28:24;;;;;;;66.53;30.95;;;;;;;2.41;71.92;101408.91;4969292;28;20964;-81
2022/01/21 04:30:51;;;;;;;76.97;34.28;;;;;;;2.40;71.98;101408.06;4975962;28;20128;-81
2022/01/21 04:33:26;;;;;;;42.40;16.20;;;;;;;2.38;71.93;101405.47;4956994;28;20047;-81
2022/01/21 04:35:59;;;;;;;37.53;12.20;;;;;;;2.38;72.30;101410.72;4965253;28;20054;-81
2022/01/21 04:38:27;;;;;;;26.92;13.77;;;;;;;2.38;72.40;101405.47;5005767;28;20474;-81
2022/01/21 04:41:18;;;;;;;31.35;9.07;;;;;;;2.39;72.18;101408.94;4959286;28;20963;-81
2022/01/21 04:49:19;;;;;;;45.20;15.05;;;;;;;2.37;72.26;101395.03;4948617;28;20042;-81
2022/01/21 04:52:02;;;;;;;48.22;13.15;;;;;;;2.38;72.41;101394.13;4952964;28;20046;-81
2022/01/21 04:54:58;;;;;;;17.88;7.35;;;;;;;2.36;72.45;101401.16;4907501;28;20066;-82
2022/01/21 04:57:32;;;;;;;30.45;7.22;;;;;;;2.36;72.24;101393.31;4981571;28;20488;-81
2022/01/21 04:59:59;;;;;;;19.45;6.70;;;;;;;2.37;72.20;101413.41;4966061;28;20053;-82
2022/01/21 05:02:29;;;;;;;21.67;6.50;;;;;;;2.34;71.86;101432.69;4912745;28;20491;-83
2022/01/21 05:04:57;;;;;;;23.42;5.57;;;;;;;2.34;72.05;101435.31;4991627;28;20062;-83
2022/01/21 05:07:26;;;;;;;24.35;5.90;;;;;;;2.35;72.36;101434.41;4971940;28;20042;-84
2022/01/21 05:09:53;;;;;;;20.77;5.68;;;;;;;2.36;72.23;101438.72;4940868;28;20047;-83
2022/01/21 05:12:22;;;;;;;20.55;7.00;;;;;;;2.36;72.32;101448.34;5003523;28;20150;-83
2022/01/21 05:17:26;;;;;;;17.50;5.75;;;;;;;2.37;72.53;101453.56;4985168;28;20043;-82
2022/01/21 05:19:53;;;;;;;21.15;7.00;;;;;;;2.37;72.56;101463.19;4970094;28;20150;-83
2022/01/21 05:22:32;;;;;;;15.20;7.32;;;;;;;2.38;72.59;101467.53;4987542;28;20487;-83
2022/01/21 05:24:58;;;;;;;19.40;6.53;;;;;;;2.37;72.33;101456.19;5016250;28;20689;-83
2022/01/21 05:27:26;;;;;;;29.77;6.80;;;;;;;2.37;72.59;101458.81;4966707;28;20097;-83
2022/01/21 05:29:53;;;;;;;29.00;6.90;;;;;;;2.38;72.49;101463.13;4965414;28;20560;-82
2022/01/21 05:32:21;;;;;;;24.60;7.13;;;;;;;2.39;72.45;101461.38;4977834;28;20073;-82
2022/01/21 05:35:01;;;;;;;18.55;6.20;;;;;;;2.37;72.56;101463.19;4926608;28;20181;-82
2022/01/21 05:37:53;;;;;;;16.40;5.45;;;;;;;2.34;72.56;101477.25;4920794;28;20053;-82
2022/01/21 05:40:46;;;;;;;21.05;5.63;;;;;;;2.33;72.48;101479.91;4941189;28;20120;-82
2022/01/21 05:43:44;;;;;;;17.17;7.60;;;;;;;2.32;72.51;101481.69;4961326;28;20057;-82
2022/01/21 05:49:28;;;;;;;20.15;7.53;;;;;;;2.30;72.36;101483.47;4996374;28;21627;-82
2022/01/21 05:52:17;;;;;;;17.90;7.28;;;;;;;2.29;72.68;101476.53;4922795;28;20045;-82
2022/01/21 05:55:03;;;;;;;24.77;6.50;;;;;;;2.30;72.42;101480.00;4998142;28;20051;-83
2022/01/21 05:57:41;;;;;;;20.33;6.38;;;;;;;2.28;72.74;101482.66;4949685;28;20133;-83
2022/01/21 06:00:09;;;;;;;19.55;7.07;;;;;;;2.28;72.39;101487.88;4959574;28;20052;-83
2022/01/21 06:02:45;;;;;;;25.27;7.18;;;;;;;2.27;72.69;101494.03;4987404;28;20042;-83
2022/01/21 06:05:13;;;;;;;22.08;6.35;;;;;;;2.27;72.55;101498.44;4944760;28;20505;-83
2022/01/21 06:07:41;;;;;;;20.40;6.40;;;;;;;2.27;72.92;101506.31;4992475;28;20498;-83
2022/01/21 06:10:08;;;;;;;26.92;6.00;;;;;;;2.26;72.72;101501.94;4975324;28;20094;-83
2022/01/21 06:12:35;;;;;;;18.30;6.32;;;;;;;2.25;72.62;101505.47;4951657;28;20069;-83
2022/01/21 06:15:02;;;;;;;25.77;6.80;;;;;;;2.26;72.78;101505.41;4953150;28;20050;-83
2022/01/21 06:17:29;;;;;;;16.85;5.85;;;;;;;2.25;72.89;101510.72;4971829;28;20058;-83
2022/01/21 06:19:56;;;;;;;22.40;6.50;;;;;;;2.25;72.71;101505.47;4981394;28;20046;-83
2022/01/21 06:22:22;;;;;;;17.77;6.32;;;;;;;2.26;72.97;101515.03;4941605;28;20042;-83
2022/01/21 06:24:52;;;;;;;23.92;7.50;;;;;;;2.26;73.09;101515.91;4957482;28;20126;-83
2022/01/21 06:27:25;;;;;;;29.00;8.07;;;;;;;2.27;73.00;101512.41;4947732;28;20054;-83
2022/01/21 06:29:55;;;;;;;24.25;8.63;;;;;;;2.28;72.78;101510.63;4999162;28;20050;-83
2022/01/21 06:32:22;;;;;;;18.58;7.30;;;;;;;2.26;72.79;101513.28;5004032;28;20043;-83
2022/01/21 06:34:49;;;;;;;18.55;7.00;;;;;;;2.25;72.89;101518.59;4951949;28;20042;-81
2022/01/21 06:37:16;;;;;;;21.83;8.60;;;;;;;2.25;73.07;101519.44;4988015;28;20049;-81
2022/01/21 06:39:43;;;;;;;29.23;8.45;;;;;;;2.24;73.12;101517.72;4980355;28;20062;-81
2022/01/21 06:42:10;;;;;;;20.77;8.50;;;;;;;2.25;73.12;101515.97;4987868;28;20445;-81
2022/01/21 06:44:36;;;;;;;22.63;7.55;;;;;;;2.26;72.89;101515.03;5013636;28;20045;-81
2022/01/21 06:47:04;;;;;;;20.38;6.43;;;;;;;2.26;73.16;101507.19;4993431;28;20133;-81
2022/01/21 06:49:30;;;;;;;21.85;6.80;;;;;;;2.25;72.88;101511.56;4948114;28;20078;-81
2022/01/21 06:51:57;;;;;;;27.63;7.15;;;;;;;2.25;73.10;101506.31;4992001;28;20042;-81
2022/01/21 06:54:24;;;;;;;21.25;6.88;;;;;;;2.24;72.99;101508.97;4976708;28;20505;-81
2022/01/21 06:56:50;;;;;;;26.95;7.40;;;;;;;2.22;73.29;101511.66;4965921;28;20042;-81
2022/01/21 06:59:17;;;;;;;18.05;5.90;;;;;;;2.24;72.82;101508.97;4941782;28;20042;-81
2022/01/21 07:01:44;;;;;;;24.23;7.30;;;;;;;2.23;73.16;101508.13;4965210;28;20062;-81
2022/01/21 07:04:10;;;;;;;20.08;7.80;;;;;;;2.23;73.14;101523.00;4961072;28;20109;-81
2022/01/21 07:06:37;;;;;;;18.55;8.10;;;;;;;2.22;72.95;101521.28;4970342;28;20050;-81
2022/01/21 07:09:04;;;;;;;24.40;7.03;;;;;;;2.21;73.01;101515.16;4995575;28;20061;-81
2022/01/21 07:11:31;;;;;;;22.88;7.10;;;;;;;2.21;73.17;101519.56;4985894;28;20035;-81
2022/01/21 07:13:58;;;;;;;28.90;8.38;;;;;;;2.20;73.13;101523.94;4975312;28;20398;-81
2022/01/21 07:16:24;;;;;;;19.98;6.60;;;;;;;2.20;73.19;101523.94;4985185;28;20050;-81
2022/01/21 07:18:51;;;;;;;27.90;7.13;;;;;;;2.20;73.25;101523.09;5006853;28;20100;-81
2022/01/21 07:21:18;;;;;;;21.23;7.55;;;;;;;2.19;73.18;101522.22;4970710;28;20050;-81
2022/01/21 07:23:45;;;;;;;25.63;7.70;;;;;;;2.18;73.35;101528.34;4974289;28;20847;-81
2022/01/21 07:26:13;;;;;;;28.45;10.15;;;;;;;2.18;73.29;101523.13;4978104;28;20133;-81
2022/01/21 07:28:40;;;;;;;28.73;10.23;;;;;;;2.17;73.38;101526.66;4953376;28;20066;-82
2022/01/21 07:31:07;;;;;;;26.70;9.45;;;;;;;2.17;73.42;101526.66;4958052;28;20058;-81
2022/01/21 07:33:36;;;;;;;27.80;9.30;;;;;;;2.16;73.08;101527.53;4980582;28;20058;-81
2022/01/21 07:36:02;;;;;;;22.50;7.50;;;;;;;2.14;73.30;101526.72;4978869;28;20083;-81
2022/01/21 07:38:29;;;;;;;20.50;7.78;;;;;;;2.15;73.08;101538.94;4987234;28;20053;-81
2022/01/21 07:40:56;;;;;;;21.15;8.13;;;;;;;2.13;73.42;101528.47;4973494;28;20066;-81
2022/01/21 07:43:23;;;;;;;14.13;6.28;;;;;;;2.14;73.35;101531.97;4979810;28;20058;-81
2022/01/21 07:45:49;;;;;;;29.33;7.57;;;;;;;2.13;73.49;101530.25;5003906;28;20045;-81
2022/01/21 07:48:16;;;;;;;23.63;7.18;;;;;;;2.15;73.50;101523.19;4976930;28;20046;-81
2022/01/21 07:50:43;;;;;;;35.10;9.65;;;;;;;2.15;73.26;101513.56;5016455;28;20046;-81
2022/01/21 07:53:10;;;;;;;26.15;9.65;;;;;;;2.14;73.12;101513.63;4988172;28;20047;-81
2022/01/21 07:55:36;;;;;;;33.38;11.88;;;;;;;2.14;73.23;101511.88;4975026;28;20275;-81
2022/01/21 07:58:03;;;;;;;33.20;9.18;;;;;;;2.17;73.19;101516.16;4988767;28;20058;-81
2022/01/21 08:00:30;;;;;;;31.90;9.20;;;;;;;2.16;73.06;101515.31;4990485;28;20070;-81
2022/01/21 08:02:58;;;;;;;28.92;9.07;;;;;;;2.17;73.44;101518.78;4957733;28;20046;-81
2022/01/21 08:05:30;;;;;;;28.25;10.13;;;;;;;2.19;73.29;101522.22;4985052;28;20521;-81
2022/01/21 08:07:57;;;;;;;35.25;11.43;;;;;;;2.18;73.24;101534.44;4974169;28;20042;-81
2022/01/21 08:10:23;;;;;;;29.27;8.80;;;;;;;2.18;73.21;101523.13;4969705;28;20058;-81
2022/01/21 08:12:50;;;;;;;33.40;9.23;;;;;;;2.20;73.15;101538.81;5003934;28;20057;-82
2022/01/21 08:15:17;;;;;;;23.55;7.43;;;;;;;2.19;73.19;101543.19;4986494;28;20045;-81
2022/01/21 08:17:44;;;;;;;27.70;8.75;;;;;;;2.18;73.34;101544.94;4984814;28;20089;-81
2022/01/21 08:20:11;;;;;;;29.20;8.10;;;;;;;2.18;73.15;101536.22;4991232;28;20061;-81
2022/01/21 08:22:37;;;;;;;17.83;7.22;;;;;;;2.20;73.29;101538.81;4989040;28;20057;-81
2022/01/21 08:25:04;;;;;;;34.28;8.60;;;;;;;2.20;73.44;101539.66;4977166;28;20062;-81
2022/01/21 08:27:31;;;;;;;25.58;8.50;;;;;;;2.19;73.43;101548.44;4982197;28;20497;-81
2022/01/21 08:29:58;;;;;;;20.27;7.93;;;;;;;2.20;73.56;101551.91;4994615;28;20039;-81
2022/01/21 08:32:24;;;;;;;27.35;8.75;;;;;;;2.21;73.71;101546.63;4975665;28;20042;-81
2022/01/21 08:34:51;;;;;;;24.02;8.57;;;;;;;2.21;73.59;101536.13;4989195;28;20433;-81
2022/01/21 08:37:19;;;;;;;28.63;10.38;;;;;;;2.24;73.51;101536.06;4985831;28;21141;-81
2022/01/21 08:39:46;;;;;;;27.88;9.55;;;;;;;2.26;73.45;101536.00;4969719;28;20042;-81
2022/01/21 08:42:13;;;;;;;32.42;8.65;;;;;;;2.26;73.65;101536.00;4972336;28;20042;-81
2022/01/21 08:44:39;;;;;;;35.22;8.18;;;;;;;2.27;73.32;101538.59;4974421;28;20816;-81
2022/01/21 08:47:06;;;;;;;18.75;7.57;;;;;;;2.28;73.62;101539.47;4987774;28;20043;-81
2022/01/21 08:49:39;;;;;;;22.08;8.88;;;;;;;2.27;73.61;101533.38;5000442;28;20046;-81
2022/01/21 08:52:06;;;;;;;31.48;9.63;;;;;;;2.30;73.44;101548.16;4989363;28;20050;-81
2022/01/21 08:54:33;;;;;;;29.48;8.02;;;;;;;2.30;73.46;101550.78;5016851;28;20048;-81
2022/01/21 08:56:59;;;;;;;31.50;10.85;;;;;;;2.30;73.34;101556.88;4967277;28;20054;-81
2022/01/21 08:59:26;;;;;;;29.85;10.38;;;;;;;2.31;73.58;101558.56;4988532;28;20454;-81
2022/01/21 09:01:54;;;;;;;23.65;10.70;;;;;;;2.33;73.38;101566.41;4959214;28;20070;-81
2022/01/21 09:04:21;;;;;;;39.17;11.05;;;;;;;2.33;73.37;101561.16;4993632;28;20464;-81
2022/01/21 09:06:48;;;;;;;34.67;10.13;;;;;;;2.33;73.65;101567.25;4988557;28;20497;-81
2022/01/21 09:09:15;;;;;;;31.42;10.05;;;;;;;2.35;73.29;101577.72;4975689;28;20042;-81
2022/01/21 09:11:42;;;;;;;27.23;8.88;;;;;;;2.34;73.10;101578.59;4977068;28;20061;-81
2022/01/21 09:14:09;;;;;;;24.33;8.30;;;;;;;2.29;73.07;101580.50;4991143;28;20512;-81
2022/01/21 09:16:36;;;;;;;26.77;9.13;;;;;;;2.32;73.22;101581.28;4982932;28;20038;-81
2022/01/21 09:19:04;;;;;;;31.05;10.43;;;;;;;2.37;72.93;101586.41;4969978;28;20060;-81
2022/01/21 09:21:37;;;;;;;35.03;9.38;;;;;;;2.33;72.96;101588.22;4950794;28;20101;-81
2022/01/21 09:24:05;;;;;;;28.90;9.05;;;;;;;2.35;73.38;101596.94;4993844;28;20097;-81
2022/01/21 09:26:32;;;;;;;26.58;9.63;;;;;;;2.38;73.14;101590.75;4985422;28;20058;-81
2022/01/21 09:29:02;;;;;;;29.50;9.57;;;;;;;2.33;72.95;101593.47;4990393;28;20053;-81
2022/01/21 09:31:29;;;;;;;34.80;9.20;;;;;;;2.34;73.06;101592.59;4985812;28;20513;-81
2022/01/21 09:34:16;;;;;;;27.40;9.20;;;;;;;2.36;73.28;101595.16;4948756;28;20572;-81
2022/01/21 09:36:43;;;;;;;28.77;9.32;;;;;;;2.37;73.29;101594.28;4987091;28;20129;-81
2022/01/21 09:39:11;;;;;;;23.25;10.50;;;;;;;2.38;73.38;101593.38;4985380;28;20153;-81
2022/01/21 09:41:37;;;;;;;32.63;10.32;;;;;;;2.39;73.28;101584.59;5000852;28;20580;-81
2022/01/21 09:44:06;;;;;;;31.15;10.90;;;;;;;2.41;73.24;101592.44;4985112;28;20066;-81
2022/01/21 09:46:35;;;;;;;37.78;11.20;;;;;;;2.41;73.26;101588.03;4968418;28;20049;-81
2022/01/21 09:49:07;;;;;;;34.47;10.13;;;;;;;2.42;73.28;101584.53;4971794;28;20664;-81
2022/01/21 09:51:36;;;;;;;30.02;9.70;;;;;;;2.43;73.26;101585.38;4971553;28;20058;-81
2022/01/21 09:54:05;;;;;;;30.85;10.75;;;;;;;2.43;73.32;101574.91;4974598;28;20050;-81
2022/01/21 09:56:34;;;;;;;27.23;10.52;;;;;;;2.44;73.22;101581.84;4969552;28;20046;-81
2022/01/21 09:59:01;;;;;;;27.98;11.50;;;;;;;2.43;73.40;101578.38;4973562;28;20413;-81
2022/01/21 10:01:28;;;;;;;33.53;10.43;;;;;;;2.45;73.57;101579.19;4968267;28;20049;-81
2022/01/21 10:03:55;;;;;;;33.38;10.60;;;;;;;2.48;73.68;101591.38;4967180;28;20042;-81
2022/01/21 10:06:26;;;;;;;43.13;11.27;;;;;;;2.50;73.64;101592.19;4973410;28;20050;-81
2022/01/21 10:08:57;;;;;;;36.28;11.60;;;;;;;2.49;73.56;101596.56;4983916;28;20122;-81
2022/01/21 10:11:24;;;;;;;40.50;10.93;;;;;;;2.48;73.69;101600.09;4984298;28;20066;-82
2022/01/21 10:13:52;;;;;;;31.90;12.10;;;;;;;2.50;73.30;101600.91;4977899;28;20098;-81
2022/01/21 10:16:19;;;;;;;30.45;10.82;;;;;;;2.49;73.60;101599.16;4961621;28;20051;-82
2022/01/21 10:19:07;;;;;;;37.72;11.90;;;;;;;2.43;73.54;101604.59;4983371;28;20203;-81
2022/01/21 10:21:36;;;;;;;33.40;11.77;;;;;;;2.49;73.73;101591.31;4984785;28;20053;-81
2022/01/21 10:24:08;;;;;;;29.98;10.07;;;;;;;2.50;73.61;101585.19;4975489;28;20043;-81
2022/01/21 10:26:45;;;;;;;48.75;11.55;;;;;;;2.50;73.81;101584.31;4992878;28;20172;-81
2022/01/21 10:29:14;;;;;;;30.40;10.07;;;;;;;2.53;73.41;101592.09;4939649;28;20054;-81
2022/01/21 10:32:00;;;;;;;36.70;10.88;;;;;;;2.43;73.37;101586.25;4980412;28;20054;-81
2022/01/21 10:34:40;;;;;;;31.38;10.32;;;;;;;2.49;73.23;101593.06;4987969;28;20031;-81
2022/01/21 10:37:25;;;;;;;28.25;9.55;;;;;;;2.41;73.45;101579.31;4971951;28;20049;-81
2022/01/21 10:39:58;;;;;;;34.22;10.93;;;;;;;2.42;73.32;101587.16;4988760;28;20053;-81
2022/01/21 10:42:26;;;;;;;35.17;10.93;;;;;;;2.45;73.34;101583.59;5011345;28;20056;-81
2022/01/21 10:44:53;;;;;;;40.95;10.55;;;;;;;2.47;73.59;101581.75;4959911;28;20058;-81
2022/01/21 10:47:30;;;;;;;42.78;11.02;;;;;;;2.42;73.29;101579.28;4996291;28;20049;-81
2022/01/21 10:50:24;;;;;;;32.88;11.15;;;;;;;2.43;73.45;101581.00;4997245;28;20050;-81
2022/01/21 10:52:52;;;;;;;27.83;9.45;;;;;;;2.42;73.61;101583.66;4941947;28;20046;-81
2022/01/21 10:55:37;;;;;;;29.55;10.15;;;;;;;2.42;73.52;101586.25;4970620;28;20043;-81
2022/01/21 10:58:16;;;;;;;30.73;9.38;;;;;;;2.43;73.81;101593.25;4971861;28;20050;-81
2022/01/21 11:00:58;;;;;;;35.17;9.57;;;;;;;2.41;73.72;101590.66;4958992;28;20529;-81
2022/01/21 11:03:28;;;;;;;23.95;9.23;;;;;;;2.50;73.55;101589.56;4914698;28;20047;-81
2022/01/21 11:06:24;;;;;;;28.63;8.38;;;;;;;2.39;73.70;101590.72;4952489;28;20053;-81
2022/01/21 11:08:51;;;;;;;32.72;10.07;;;;;;;2.48;73.45;101588.75;4937094;28;20057;-81
2022/01/21 11:11:23;;;;;;;19.80;8.40;;;;;;;2.48;73.56;101588.75;4985993;28;20037;-81
2022/01/21 11:13:50;;;;;;;35.00;9.50;;;;;;;2.47;73.65;101576.50;4974217;28;20522;-81
2022/01/21 11:16:24;;;;;;;29.08;10.15;;;;;;;2.49;73.76;101578.19;4973510;28;20125;-81
2022/01/21 11:19:13;;;;;;;22.25;8.43;;;;;;;2.49;74.05;101566.84;4997677;28;20116;-81
2022/01/21 11:21:48;;;;;;;36.10;8.30;;;;;;;2.56;73.83;101558.78;4980582;28;20061;-81
2022/01/21 11:24:16;;;;;;;37.42;8.90;;;;;;;2.58;73.76;101556.13;4976650;28;20049;-81
2022/01/21 11:26:43;;;;;;;30.58;8.68;;;;;;;2.60;73.76;101555.19;4988278;28;20057;-81
2022/01/21 11:29:10;;;;;;;25.05;9.00;;;;;;;2.58;73.93;101558.75;4956766;28;20045;-81
2022/01/21 11:31:37;;;;;;;31.27;9.25;;;;;;;2.61;73.58;101566.53;5015161;28;20528;-81
2022/01/21 11:34:10;;;;;;;34.65;9.00;;;;;;;2.62;73.42;101552.53;4988441;28;20053;-81
2022/01/21 11:36:36;;;;;;;30.40;9.02;;;;;;;2.61;73.50;101562.13;4983956;28;20078;-81
2022/01/21 11:39:04;;;;;;;34.60;9.32;;;;;;;2.58;73.39;101554.34;4986776;28;20049;-81
2022/01/21 11:41:31;;;;;;;31.55;9.15;;;;;;;2.62;72.80;101547.28;4969576;28;20047;-81
2022/01/21 11:44:01;;;;;;;24.50;8.70;;;;;;;2.58;73.07;101554.34;4971168;28;20057;-81
2022/01/21 11:49:17;;;;;;;41.72;9.50;;;;;;;2.50;73.16;101556.34;4971943;28;20050;-82
2022/01/21 11:51:43;;;;;;;25.48;8.02;;;;;;;2.56;73.44;101539.56;4966971;28;20073;-81
2022/01/21 11:54:16;;;;;;;25.48;8.82;;;;;;;2.57;73.73;101547.41;4981351;28;20039;-81
2022/01/21 11:56:48;;;;;;;26.53;8.37;;;;;;;2.57;73.82;101550.03;4970690;28;20524;-81
2022/01/21 11:59:32;;;;;;;27.98;7.88;;;;;;;2.59;73.76;101549.97;4979429;28;20043;-81
2022/01/21 12:02:13;;;;;;;23.85;7.25;;;;;;;2.52;73.98;101546.66;4992938;28;20051;-81
2022/01/21 12:04:44;;;;;;;21.67;7.40;;;;;;;2.57;74.04;101547.41;4989753;28;20047;-81
2022/01/21 12:07:33;;;;;;;19.42;7.10;;;;;;;2.52;73.86;101545.78;4980848;28;20524;-81
2022/01/21 12:10:04;;;;;;;27.85;8.73;;;;;;;2.59;73.69;101540.31;4983052;28;20046;-81
2022/01/21 12:15:24;;;;;;;31.38;8.60;;;;;;;2.58;73.80;101559.59;4987088;28;20038;-81
2022/01/21 12:18:10;;;;;;;31.42;7.82;;;;;;;2.52;73.91;101554.53;4984932;28;20140;-81
2022/01/21 12:20:37;;;;;;;28.65;7.65;;;;;;;2.57;73.84;101550.03;4939662;28;20129;-81
2022/01/21 12:23:14;;;;;;;24.10;8.60;;;;;;;2.53;73.50;101547.53;4977404;28;20144;-81
2022/01/21 12:26:10;;;;;;;24.45;7.40;;;;;;;2.51;73.53;101551.94;4952610;28;20520;-81
2022/01/21 12:28:39;;;;;;;23.10;7.20;;;;;;;2.56;73.74;101553.53;4966410;28;20572;-81
2022/01/21 12:31:07;;;;;;;31.58;8.63;;;;;;;2.59;73.77;101553.44;4983860;28;20513;-81
2022/01/21 12:34:10;;;;;;;32.65;8.85;;;;;;;2.60;73.91;101542.06;4942966;28;20057;-81